OAL883 FYWB-FACT
Flight info
| Callsign | OAL883 |
|---|---|
| Flight time | N/A |
| Altitude | 34000 |
| Route | XALVI UN188 IMRUG/N0457F360 UN188 ETMUS DCT DUSLA UQ62 ASPIK |
| Aircraft | B738/M-SDE2E3FGHIRWXY/LB1 |
Departure
| Time | N/A |
|---|---|
| Airport | Walvis Bay International Airport (FYWB) |
Arrival
| Time | 2026-05-04 11:19 |
|---|---|
| Airport | Cape Town International Airport (FACT) |
| Time | Latitude | Longitude | Altitude | Speed | Heading |
|---|---|---|---|---|---|
| 2026-05-04 09:51 | -23.86947 | 14.93793 | 22551 ft | 431 kts | 167° |
| 2026-05-04 09:51 | -23.89822 | 14.94762 | 23044 ft | 434 kts | 167° |
| 2026-05-04 09:51 | -23.92719 | 14.95727 | 23514 ft | 437 kts | 168° |
| 2026-05-04 09:51 | -23.95637 | 14.96690 | 23913 ft | 440 kts | 168° |
| 2026-05-04 09:52 | -23.98583 | 14.97658 | 24272 ft | 444 kts | 168° |
| 2026-05-04 09:52 | -24.01521 | 14.98620 | 24582 ft | 449 kts | 168° |
| 2026-05-04 09:52 | -24.04527 | 14.99605 | 24937 ft | 452 kts | 168° |
| 2026-05-04 09:52 | -24.07545 | 15.00595 | 25304 ft | 455 kts | 168° |
| 2026-05-04 09:53 | -24.10590 | 15.01596 | 25662 ft | 458 kts | 168° |
| 2026-05-04 09:53 | -24.13657 | 15.02604 | 26002 ft | 461 kts | 169° |
| 2026-05-04 09:53 | -24.16743 | 15.03618 | 26314 ft | 465 kts | 169° |
| 2026-05-04 09:53 | -24.19853 | 15.04641 | 26623 ft | 469 kts | 169° |
| 2026-05-04 09:54 | -24.22989 | 15.05676 | 26948 ft | 472 kts | 169° |
| 2026-05-04 09:54 | -24.26145 | 15.06721 | 27281 ft | 475 kts | 169° |
| 2026-05-04 09:54 | -24.29313 | 15.07772 | 27636 ft | 477 kts | 169° |
| 2026-05-04 09:54 | -24.32503 | 15.08831 | 27972 ft | 479 kts | 169° |
| 2026-05-04 09:55 | -24.35707 | 15.09895 | 28265 ft | 482 kts | 169° |
| 2026-05-04 09:55 | -24.38932 | 15.10965 | 28542 ft | 486 kts | 169° |
| 2026-05-04 09:55 | -24.42141 | 15.12032 | 28826 ft | 488 kts | 169° |
| 2026-05-04 09:55 | -24.45402 | 15.13116 | 29116 ft | 491 kts | 169° |
| 2026-05-04 09:56 | -24.48681 | 15.14207 | 29403 ft | 494 kts | 169° |
| 2026-05-04 09:56 | -24.51986 | 15.15307 | 29682 ft | 497 kts | 169° |
| 2026-05-04 09:56 | -24.55300 | 15.16411 | 29948 ft | 500 kts | 169° |
| 2026-05-04 09:56 | -24.58640 | 15.17524 | 30201 ft | 502 kts | 169° |
| 2026-05-04 09:57 | -24.61997 | 15.18643 | 30426 ft | 505 kts | 169° |
| 2026-05-04 09:57 | -24.65366 | 15.19766 | 30629 ft | 507 kts | 169° |
| 2026-05-04 09:57 | -24.68749 | 15.20896 | 30912 ft | 508 kts | 170° |
| 2026-05-04 09:57 | -24.72139 | 15.22029 | 31188 ft | 509 kts | 170° |
| 2026-05-04 09:58 | -24.75525 | 15.23161 | 31471 ft | 509 kts | 170° |
| 2026-05-04 09:58 | -24.78919 | 15.24296 | 31713 ft | 511 kts | 171° |
| 2026-05-04 09:58 | -24.82328 | 15.25436 | 31954 ft | 512 kts | 171° |
| 2026-05-04 10:00 | -25.06348 | 15.33480 | 33632 ft | 520 kts | 172° |
| 2026-05-04 10:00 | -25.09820 | 15.34631 | 33930 ft | 520 kts | 172° |
| 2026-05-04 10:02 | -25.33981 | 15.42647 | 34083 ft | 515 kts | 172° |
| 2026-05-04 10:04 | -25.57983 | 15.50651 | 34079 ft | 515 kts | 171° |
| 2026-05-04 10:04 | -25.64839 | 15.52943 | 34081 ft | 514 kts | 171° |
| 2026-05-04 10:05 | -25.71693 | 15.55239 | 34080 ft | 514 kts | 171° |
| 2026-05-04 10:05 | -25.78539 | 15.57537 | 34095 ft | 513 kts | 171° |
| 2026-05-04 10:06 | -25.85373 | 15.59835 | 34092 ft | 512 kts | 171° |
| 2026-05-04 10:06 | -25.92184 | 15.62128 | 34100 ft | 511 kts | 171° |
| 2026-05-04 10:08 | -26.15984 | 15.70156 | 34097 ft | 511 kts | 171° |
| 2026-05-04 10:08 | -26.22787 | 15.72458 | 34106 ft | 511 kts | 171° |
| 2026-05-04 10:09 | -26.29565 | 15.74754 | 34162 ft | 513 kts | 171° |
| 2026-05-04 10:09 | -26.36410 | 15.77076 | 34106 ft | 515 kts | 171° |
| 2026-05-04 10:10 | -26.43272 | 15.79408 | 34102 ft | 515 kts | 171° |
| 2026-05-04 10:10 | -26.50139 | 15.81744 | 34095 ft | 515 kts | 171° |
| 2026-05-04 10:11 | -26.56988 | 15.84079 | 34098 ft | 515 kts | 171° |
| 2026-05-04 10:11 | -26.63842 | 15.86445 | 34105 ft | 515 kts | 170° |
| 2026-05-04 10:12 | -26.70688 | 15.88822 | 34106 ft | 514 kts | 170° |
| 2026-05-04 10:12 | -26.77519 | 15.91194 | 34107 ft | 513 kts | 170° |
| 2026-05-04 10:13 | -26.84338 | 15.93562 | 34097 ft | 512 kts | 170° |
| 2026-05-04 10:13 | -26.91151 | 15.95929 | 34102 ft | 513 kts | 170° |
| 2026-05-04 10:14 | -26.97959 | 15.98299 | 34092 ft | 511 kts | 171° |
| 2026-05-04 10:16 | -27.25060 | 16.07758 | 34106 ft | 514 kts | 170° |
| 2026-05-04 10:16 | -27.31899 | 16.10154 | 34100 ft | 516 kts | 170° |
| 2026-05-04 10:17 | -27.38760 | 16.12561 | 34095 ft | 517 kts | 170° |
| 2026-05-04 10:19 | -27.66282 | 16.22098 | 34095 ft | 517 kts | 171° |
| 2026-05-04 10:19 | -27.73178 | 16.24453 | 34110 ft | 518 kts | 171° |
| 2026-05-04 10:20 | -27.80088 | 16.26824 | 34101 ft | 518 kts | 170° |
| 2026-05-04 10:20 | -27.85821 | 16.28795 | 34090 ft | 518 kts | 170° |
| 2026-05-04 10:21 | -27.92620 | 16.31136 | 34092 ft | 517 kts | 170° |
| 2026-05-04 10:21 | -27.99452 | 16.33490 | 34109 ft | 516 kts | 170° |
| 2026-05-04 10:22 | -28.09585 | 16.36987 | 34078 ft | 515 kts | 170° |
| 2026-05-04 10:23 | -28.16380 | 16.39336 | 34088 ft | 515 kts | 170° |
| 2026-05-04 10:25 | -28.43832 | 16.48824 | 34081 ft | 518 kts | 170° |
| 2026-05-04 10:25 | -28.50737 | 16.51202 | 34069 ft | 519 kts | 170° |
| 2026-05-04 10:26 | -28.57663 | 16.53579 | 34079 ft | 519 kts | 172° |
| 2026-05-04 10:26 | -28.64649 | 16.55601 | 34082 ft | 516 kts | 174° |
| 2026-05-04 10:27 | -28.71648 | 16.57432 | 34081 ft | 517 kts | 175° |
| 2026-05-04 10:27 | -28.78615 | 16.59276 | 34081 ft | 517 kts | 174° |
| 2026-05-04 10:28 | -28.85630 | 16.61180 | 34092 ft | 519 kts | 174° |
| 2026-05-04 10:28 | -28.92652 | 16.63109 | 34083 ft | 519 kts | 174° |
| 2026-05-04 10:29 | -28.99678 | 16.65043 | 34077 ft | 518 kts | 174° |
| 2026-05-04 10:29 | -29.06693 | 16.66974 | 34134 ft | 518 kts | 174° |
| 2026-05-04 10:30 | -29.13717 | 16.68906 | 34087 ft | 519 kts | 174° |
| 2026-05-04 10:30 | -29.20698 | 16.70831 | 34069 ft | 518 kts | 174° |
| 2026-05-04 10:31 | -29.27719 | 16.72770 | 34081 ft | 518 kts | 174° |
| 2026-05-04 10:32 | -29.52309 | 16.79578 | 34080 ft | 520 kts | 174° |
| 2026-05-04 10:33 | -29.59358 | 16.81537 | 34079 ft | 520 kts | 174° |
| 2026-05-04 10:33 | -29.66415 | 16.83500 | 34079 ft | 522 kts | 174° |
| 2026-05-04 10:34 | -29.73474 | 16.85467 | 34083 ft | 522 kts | 174° |
| 2026-05-04 10:34 | -29.80490 | 16.87426 | 34080 ft | 522 kts | 174° |
| 2026-05-04 10:35 | -29.87501 | 16.89386 | 34179 ft | 522 kts | 174° |
| 2026-05-04 10:35 | -29.94514 | 16.91347 | 34100 ft | 523 kts | 174° |
| 2026-05-04 10:36 | -30.01423 | 16.93284 | 34080 ft | 521 kts | 174° |
| 2026-05-04 10:36 | -30.08374 | 16.95237 | 34072 ft | 519 kts | 174° |
| 2026-05-04 10:37 | -30.15258 | 16.97172 | 34076 ft | 517 kts | 174° |
| 2026-05-04 10:37 | -30.22128 | 16.99106 | 34077 ft | 516 kts | 174° |
| 2026-05-04 10:39 | -30.46119 | 17.05878 | 34056 ft | 516 kts | 174° |
| 2026-05-04 10:40 | -30.53036 | 17.07838 | 34078 ft | 517 kts | 174° |
| 2026-05-04 10:40 | -30.59982 | 17.09808 | 34068 ft | 520 kts | 174° |
| 2026-05-04 10:41 | -30.66954 | 17.11789 | 34125 ft | 521 kts | 174° |
| 2026-05-04 10:41 | -30.73876 | 17.13759 | 34071 ft | 524 kts | 173° |
| 2026-05-04 10:42 | -30.80793 | 17.15733 | 34070 ft | 525 kts | 173° |
| 2026-05-04 10:42 | -30.87800 | 17.17735 | 34068 ft | 525 kts | 173° |
| 2026-05-04 10:43 | -30.94614 | 17.19685 | 34082 ft | 526 kts | 173° |
| 2026-05-04 10:45 | -31.22119 | 17.27582 | 34063 ft | 525 kts | 173° |
| 2026-05-04 10:45 | -31.29081 | 17.29588 | 34067 ft | 524 kts | 173° |
| 2026-05-04 10:46 | -31.36034 | 17.31596 | 34055 ft | 524 kts | 173° |
| 2026-05-04 10:46 | -31.43001 | 17.33610 | 34082 ft | 523 kts | 173° |
| 2026-05-04 10:47 | -31.49922 | 17.35613 | 34061 ft | 524 kts | 173° |
| 2026-05-04 10:47 | -31.56969 | 17.37656 | 34053 ft | 524 kts | 173° |
| 2026-05-04 10:49 | -31.84962 | 17.45803 | 34047 ft | 526 kts | 173° |
| 2026-05-04 10:50 | -31.86275 | 17.46186 | 34049 ft | 526 kts | 173° |
| 2026-05-04 10:52 | -32.14798 | 17.54544 | 34043 ft | 529 kts | 173° |
| 2026-05-04 10:52 | -32.21945 | 17.56647 | 34049 ft | 530 kts | 173° |
| 2026-05-04 10:54 | -32.50527 | 17.65090 | 34034 ft | 530 kts | 173° |
| 2026-05-04 10:56 | -32.75600 | 17.72545 | 30986 ft | 524 kts | 172° |
| 2026-05-04 10:56 | -32.79121 | 17.73597 | 30536 ft | 520 kts | 172° |
| 2026-05-04 10:56 | -32.82618 | 17.74641 | 30051 ft | 517 kts | 172° |
| 2026-05-04 10:57 | -32.86100 | 17.75682 | 29537 ft | 513 kts | 172° |
| 2026-05-04 10:57 | -32.89549 | 17.76714 | 29080 ft | 508 kts | 172° |
| 2026-05-04 10:57 | -32.92914 | 17.77721 | 28654 ft | 503 kts | 172° |
| 2026-05-04 10:57 | -32.96290 | 17.78732 | 28182 ft | 500 kts | 172° |
| 2026-05-04 10:58 | -32.99654 | 17.79740 | 27720 ft | 496 kts | 172° |
| 2026-05-04 10:58 | -33.02984 | 17.80738 | 27270 ft | 492 kts | 172° |
| 2026-05-04 10:58 | -33.06290 | 17.81730 | 26829 ft | 488 kts | 172° |
| 2026-05-04 10:58 | -33.09567 | 17.82714 | 26397 ft | 484 kts | 172° |
| 2026-05-04 10:59 | -33.12819 | 17.83691 | 25963 ft | 480 kts | 172° |
| 2026-05-04 10:59 | -33.16042 | 17.84660 | 25541 ft | 477 kts | 172° |
| 2026-05-04 10:59 | -33.19255 | 17.85627 | 25145 ft | 473 kts | 172° |
| 2026-05-04 10:59 | -33.22441 | 17.86586 | 24704 ft | 471 kts | 172° |
| 2026-05-04 11:00 | -33.25618 | 17.87543 | 24274 ft | 468 kts | 172° |
| 2026-05-04 11:01 | -33.47207 | 17.94071 | 21190 ft | 446 kts | 172° |
| 2026-05-04 11:02 | -33.50208 | 17.94981 | 20769 ft | 442 kts | 172° |
| 2026-05-04 11:02 | -33.53182 | 17.95883 | 20352 ft | 439 kts | 172° |
| 2026-05-04 11:05 | -33.92278 | 18.07806 | 14566 ft | 382 kts | 170° |
| 2026-05-04 11:06 | -33.94840 | 18.08591 | 14203 ft | 378 kts | 170° |
| 2026-05-04 11:06 | -33.97357 | 18.09363 | 14026 ft | 368 kts | 170° |
| 2026-05-04 11:06 | -33.99809 | 18.10116 | 13893 ft | 358 kts | 170° |
| 2026-05-04 11:06 | -34.02194 | 18.10850 | 13751 ft | 349 kts | 170° |
| 2026-05-04 11:08 | -34.07221 | 18.25119 | 12282 ft | 295 kts | 63° |
| 2026-05-04 11:10 | -34.02824 | 18.40216 | 11146 ft | 251 kts | 64° |
| 2026-05-04 11:12 | -34.10954 | 18.49450 | 10521 ft | 325 kts | 164° |
| 2026-05-04 11:12 | -34.13096 | 18.50352 | 9630 ft | 326 kts | 163° |
| 2026-05-04 11:12 | -34.15235 | 18.51284 | 8719 ft | 324 kts | 159° |
| 2026-05-04 11:12 | -34.16987 | 18.52781 | 8388 ft | 296 kts | 131° |
| 2026-05-04 11:13 | -34.17980 | 18.54786 | 8085 ft | 271 kts | 107° |
| 2026-05-04 11:13 | -34.18394 | 18.56934 | 7786 ft | 250 kts | 91° |
| 2026-05-04 11:13 | -34.18369 | 18.58919 | 7486 ft | 231 kts | 73° |
| 2026-05-04 11:13 | -34.17933 | 18.60713 | 7208 ft | 216 kts | 64° |
| 2026-05-04 11:14 | -34.17771 | 18.61287 | 7120 ft | 213 kts | 64° |
| 2026-05-04 11:14 | -34.16792 | 18.64537 | 6588 ft | 200 kts | 46° |
| 2026-05-04 11:16 | -34.07853 | 18.63209 | 4044 ft | 174 kts | 324° |
| 2026-05-04 11:16 | -34.06770 | 18.62642 | 3546 ft | 171 kts | 338° |
| 2026-05-04 11:16 | -34.05615 | 18.62480 | 3134 ft | 163 kts | 352° |
| 2026-05-04 11:17 | -34.04449 | 18.62504 | 2536 ft | 163 kts | 350° |
| 2026-05-04 11:17 | -34.03363 | 18.62374 | 2081 ft | 155 kts | 348° |
| 2026-05-04 11:19 | -33.96982 | 18.60315 | 180 ft | 129 kts | 340° |
| 2026-05-04 11:19 | -33.96143 | 18.60030 | 153 ft | 117 kts | 344° |
| 2026-05-04 11:19 | -33.95782 | 18.60019 | 154 ft | 1 kts | 4° |